KLGD

La Grande/Union County Airport

La Grande, Oregon, USA
METAR KLGD 170756Z AUTO 00000KT 10SM CLR M08/M08 A3025 RMK AO2 SLP378 T10781083 400281089 FZRANO
Observed Flight Rules
Dec-17 @ 07:56 UTC (20 minutes ago) Visual Flight Rules
Wind Visibility Clouds
Calm 10 miles
  • Clear skies
Temperatures Readings
Current -8°C / 18°F
Dewpoint -8°C / 18°F
Humidity 100%
Altimeter 30.25" Hg
Pressure 1037.8 hPa
Elevation 827
METAR KLGD 170756Z AUTO 00000KT 10SM CLR M08/M08 A3025 RMK AO2 SLP378 T10781083 400281089 FZRANO
Observed Flight Rules
Dec-17 @ 07:56 UTC
(20 minutes ago)
VFR
Wind Visibility
Calm 10 miles
Clouds
  • Clear skies
Temperature Dewpoint
-8°C / 18°F -8°C / 18°F
Humidity Altimeter Pressure
100% 30.25" Hg 1037.8 hPa